Time;durP1;ratioP1;P1;durP2;ratioP2;P2;SDS_P1;SDS_P2;PMS_P1;PMS_P2;Temp;Humidity;BMP_temperature;BMP_pressure;BME280_temperature;BME280_humidity;BME280_pressure;Samples;Min_cycle;Max_cycle;Signal;HPM_P1;HPM_P2
2021/03/30 00:00:05;;;;;;;18.00;11.40;;;;;;;9.55;82.70;102203.69;5098113;28;20186;-71
2021/03/30 00:02:31;;;;;;;20.13;12.17;;;;;;;9.52;82.91;102201.13;5096126;28;20709;-71
2021/03/30 00:04:56;;;;;;;15.83;11.00;;;;;;;9.47;82.89;102203.91;5096955;28;20171;-70
2021/03/30 00:07:21;;;;;;;21.13;10.67;;;;;;;9.43;82.47;102210.25;5096450;28;20173;-71
2021/03/30 00:09:47;;;;;;;21.50;11.10;;;;;;;9.38;82.96;102202.38;5096382;28;20216;-71
2021/03/30 00:12:12;;;;;;;16.80;9.67;;;;;;;9.38;82.44;102206.84;5095043;28;20669;-70
2021/03/30 00:14:37;;;;;;;15.83;11.40;;;;;;;9.33;82.32;102203.41;5096266;28;20175;-71
2021/03/30 00:17:03;;;;;;;14.67;10.63;;;;;;;9.20;83.24;102207.28;5096861;28;20174;-71
2021/03/30 00:19:28;;;;;;;18.33;11.67;;;;;;;9.17;83.41;102205.56;5095676;28;20202;-71
2021/03/30 00:21:53;;;;;;;16.73;12.27;;;;;;;9.09;84.15;102202.25;5096214;28;20170;-71
2021/03/30 00:24:19;;;;;;;18.03;12.23;;;;;;;9.11;83.88;102202.19;5097530;28;20701;-72
2021/03/30 00:26:44;;;;;;;15.40;11.60;;;;;;;9.07;84.51;102199.63;5099441;28;20178;-72
2021/03/30 00:29:09;;;;;;;17.93;11.50;;;;;;;9.09;84.36;102205.78;5097363;28;20217;-72
2021/03/30 00:31:35;;;;;;;20.60;12.43;;;;;;;9.07;83.81;102199.63;5095267;28;20173;-72
2021/03/30 00:34:00;;;;;;;22.97;12.13;;;;;;;9.06;84.27;102205.84;5096194;28;20215;-72
2021/03/30 00:36:25;;;;;;;16.83;11.73;;;;;;;9.04;84.52;102197.03;5096191;28;20177;-72
2021/03/30 00:38:51;;;;;;;22.47;12.07;;;;;;;9.03;84.70;102202.41;5094948;28;20198;-72
2021/03/30 00:41:16;;;;;;;23.20;12.37;;;;;;;9.04;84.50;102202.34;5094791;28;20175;-72
2021/03/30 00:43:41;;;;;;;18.07;12.73;;;;;;;9.16;84.14;102203.81;5094837;28;20201;-72
2021/03/30 00:46:13;;;;;;;18.57;12.57;;;;;;;9.21;83.84;102203.72;5095672;28;20178;-72
2021/03/30 00:48:38;;;;;;;20.50;12.23;;;;;;;9.17;83.96;102202.03;5094834;28;20281;-72
2021/03/30 00:51:04;;;;;;;20.80;12.10;;;;;;;9.13;84.06;102200.38;5094776;28;20690;-72
2021/03/30 00:53:29;;;;;;;19.43;12.90;;;;;;;9.19;84.09;102197.53;5094525;28;20175;-72
2021/03/30 00:55:54;;;;;;;20.43;12.73;;;;;;;9.07;84.05;102196.06;5095753;28;20177;-72
2021/03/30 00:58:20;;;;;;;19.97;12.70;;;;;;;9.09;83.94;102192.47;5093341;28;20177;-72
2021/03/30 01:00:45;;;;;;;22.33;12.30;;;;;;;9.03;84.05;102191.75;5095314;28;20182;-72
2021/03/30 01:03:10;;;;;;;21.37;12.70;;;;;;;8.97;84.14;102190.13;5096616;28;20186;-72
2021/03/30 01:05:36;;;;;;;22.63;12.60;;;;;;;8.92;84.37;102192.03;5095091;28;20177;-72
2021/03/30 01:08:23;;;;;;;19.27;12.23;;;;;;;8.86;84.58;102192.13;5096537;28;20173;-72
2021/03/30 01:10:58;;;;;;;18.57;11.43;;;;;;;8.85;84.68;102193.06;5096207;28;20249;-72
2021/03/30 01:13:53;;;;;;;17.83;12.47;;;;;;;8.69;84.93;102195.22;5096103;28;20173;-71
2021/03/30 01:16:24;;;;;;;22.13;12.83;;;;;;;8.70;84.85;102196.09;5096144;28;20181;-72
2021/03/30 01:19:23;;;;;;;21.83;12.73;;;;;;;8.67;84.96;102202.38;5078215;28;20212;-72
2021/03/30 01:22:16;;;;;;;17.87;12.20;;;;;;;8.70;85.64;102207.63;5077038;28;20177;-71
2021/03/30 01:24:46;;;;;;;22.53;12.53;;;;;;;8.58;85.52;102207.03;5095442;28;20172;-71
2021/03/30 01:27:37;;;;;;;21.40;13.23;;;;;;;8.51;86.08;102200.06;5093885;28;20239;-71
2021/03/30 01:30:04;;;;;;;21.03;13.27;;;;;;;8.39;86.18;102210.09;5093786;28;20271;-71
2021/03/30 01:32:35;;;;;;;20.03;12.80;;;;;;;8.33;86.48;102206.66;5094737;28;20262;-71
2021/03/30 01:35:02;;;;;;;23.50;12.73;;;;;;;8.30;87.02;102199.63;5093910;28;20158;-72
2021/03/30 01:37:28;;;;;;;24.70;13.50;;;;;;;8.26;86.77;102203.25;5095171;28;20185;-72
2021/03/30 01:39:56;;;;;;;20.27;12.70;;;;;;;8.24;86.79;102202.41;5094828;28;20267;-71
2021/03/30 01:42:24;;;;;;;22.97;14.33;;;;;;;8.28;86.94;102192.59;5093614;28;20175;-71
2021/03/30 01:44:51;;;;;;;20.90;14.10;;;;;;;8.33;86.68;102204.91;5094434;28;20543;-72
2021/03/30 01:47:18;;;;;;;21.67;13.87;;;;;;;8.36;86.51;102195.97;5094673;28;20181;-71
2021/03/30 01:49:43;;;;;;;22.13;14.50;;;;;;;8.32;86.85;102200.47;5094449;28;20669;-71
2021/03/30 01:52:10;;;;;;;22.70;14.03;;;;;;;8.35;86.40;102199.56;5093380;28;20176;-72
2021/03/30 01:54:36;;;;;;;22.73;13.63;;;;;;;8.29;86.49;102203.19;5093810;28;20176;-72
2021/03/30 01:57:01;;;;;;;22.43;14.03;;;;;;;8.23;86.78;102197.13;5076910;28;20177;-72
2021/03/30 01:59:28;;;;;;;21.53;14.27;;;;;;;8.28;87.17;102196.13;5093209;28;20193;-71
2021/03/30 02:01:54;;;;;;;18.03;12.77;;;;;;;8.28;87.20;102196.13;5093237;28;20251;-71
2021/03/30 02:04:21;;;;;;;22.63;14.03;;;;;;;8.28;86.94;102203.22;5093409;28;20220;-73
2021/03/30 02:06:47;;;;;;;26.57;14.87;;;;;;;8.38;87.20;102204.81;5094214;28;20170;-72
2021/03/30 02:09:19;;;;;;;25.30;14.73;;;;;;;8.47;86.47;102201.94;5092607;28;20201;-72
2021/03/30 02:11:55;;;;;;;23.43;13.67;;;;;;;8.51;86.72;102205.41;5094314;28;20151;-73
2021/03/30 02:14:20;;;;;;;23.07;14.53;;;;;;;8.49;86.42;102207.22;5077909;28;20162;-73
2021/03/30 02:17:00;;;;;;;22.00;13.97;;;;;;;8.46;86.09;102208.16;5094252;28;20264;-73
2021/03/30 02:19:33;;;;;;;21.30;13.27;;;;;;;8.42;86.49;102212.69;5075961;28;20263;-71
2021/03/30 02:22:04;;;;;;;25.83;14.07;;;;;;;8.39;86.67;102212.75;5094216;28;20161;-74
2021/03/30 02:24:29;;;;;;;21.80;13.83;;;;;;;8.43;86.71;102217.09;5092560;28;20285;-72
2021/03/30 02:26:56;;;;;;;22.27;12.93;;;;;;;8.38;86.91;102210.13;5093879;28;20264;-71
2021/03/30 02:29:24;;;;;;;23.67;13.47;;;;;;;8.30;87.09;102220.03;5076245;28;20201;-72
2021/03/30 02:31:51;;;;;;;22.50;13.93;;;;;;;8.23;87.37;102215.75;5094349;28;20487;-71
2021/03/30 02:34:17;;;;;;;19.80;13.40;;;;;;;8.25;87.16;102214.81;5094021;28;20223;-71
2021/03/30 02:36:44;;;;;;;24.03;14.83;;;;;;;8.23;87.27;102208.66;5093997;28;20208;-72
2021/03/30 02:39:11;;;;;;;26.47;14.73;;;;;;;8.21;87.35;102210.47;5092416;28;20194;-72
2021/03/30 02:41:38;;;;;;;22.93;14.87;;;;;;;8.21;87.51;102213.13;5092424;28;20170;-72
2021/03/30 02:44:05;;;;;;;24.97;14.33;;;;;;;8.16;87.54;102218.50;5094080;28;20323;-72
2021/03/30 02:46:32;;;;;;;26.63;14.60;;;;;;;8.18;87.72;102213.19;5093082;28;20188;-72
2021/03/30 02:48:58;;;;;;;27.97;15.67;;;;;;;8.22;87.34;102214.88;5095530;28;20249;-71
2021/03/30 02:51:25;;;;;;;24.03;14.67;;;;;;;8.21;87.30;102212.25;5093973;28;20211;-71
2021/03/30 02:53:55;;;;;;;25.27;15.37;;;;;;;8.19;87.50;102214.94;5093435;28;20162;-71
2021/03/30 02:56:21;;;;;;;25.87;14.60;;;;;;;8.16;87.72;102214.97;5097788;28;20169;-72
2021/03/30 02:58:47;;;;;;;25.53;15.60;;;;;;;8.19;87.53;102216.72;5092687;28;20261;-72
2021/03/30 03:01:14;;;;;;;25.37;15.43;;;;;;;8.20;87.30;102223.81;5092667;28;20657;-72
2021/03/30 03:03:40;;;;;;;21.90;15.43;;;;;;;8.17;87.55;102214.06;5075748;28;20593;-71
2021/03/30 03:06:05;;;;;;;24.10;16.33;;;;;;;8.17;87.29;102222.06;5093471;28;20169;-72
2021/03/30 03:08:31;;;;;;;26.33;15.40;;;;;;;8.18;87.03;102220.28;5091536;28;20288;-72
2021/03/30 03:10:57;;;;;;;23.03;14.73;;;;;;;8.23;87.05;102216.63;5091873;28;20174;-71
2021/03/30 03:13:24;;;;;;;25.77;15.73;;;;;;;8.28;86.60;102214.75;5092933;28;20169;-72
2021/03/30 03:15:50;;;;;;;23.60;15.47;;;;;;;8.32;86.58;102216.44;5091637;28;20177;-72
2021/03/30 03:18:16;;;;;;;27.23;15.60;;;;;;;8.29;87.03;102211.19;5091952;28;20174;-71
2021/03/30 03:20:45;;;;;;;25.73;15.77;;;;;;;8.37;86.27;102209.25;5091884;28;20174;-72
2021/03/30 03:23:10;;;;;;;23.47;16.07;;;;;;;8.39;85.74;102217.19;5095173;28;20288;-71
2021/03/30 03:25:37;;;;;;;28.43;15.60;;;;;;;8.40;85.77;102213.63;5095376;28;20214;-72
2021/03/30 03:28:02;;;;;;;24.53;14.60;;;;;;;8.39;85.79;102215.41;5095191;28;20180;-71
2021/03/30 03:30:28;;;;;;;23.10;14.97;;;;;;;8.44;85.33;102210.84;5096688;28;20246;-71
2021/03/30 03:33:06;;;;;;;23.40;14.80;;;;;;;8.49;85.09;102207.22;5096406;28;20252;-72
2021/03/30 03:35:32;;;;;;;28.87;15.03;;;;;;;8.57;84.55;102218.59;5095427;28;20565;-72
2021/03/30 03:37:57;;;;;;;27.33;15.93;;;;;;;8.61;84.28;102209.63;5096518;28;20166;-72
2021/03/30 03:40:22;;;;;;;25.37;15.67;;;;;;;8.60;84.34;102211.41;5096253;28;20217;-72
2021/03/30 03:42:48;;;;;;;24.83;15.07;;;;;;;8.65;83.89;102216.63;5096174;28;20198;-72
2021/03/30 03:45:13;;;;;;;28.50;14.53;;;;;;;8.73;83.42;102223.50;5096219;28;20558;-72
2021/03/30 03:47:39;;;;;;;24.73;15.07;;;;;;;8.77;82.97;102211.88;5095368;28;20576;-72
2021/03/30 03:50:05;;;;;;;28.93;13.63;;;;;;;8.83;82.30;102213.50;5095959;28;20215;-72
2021/03/30 03:52:34;;;;;;;19.40;12.80;;;;;;;8.82;82.18;102218.88;5094707;28;20273;-71
2021/03/30 03:54:59;;;;;;;24.77;13.67;;;;;;;8.76;82.48;102226.09;5095917;28;20511;-72
2021/03/30 03:57:29;;;;;;;25.60;14.57;;;;;;;8.68;82.48;102228.06;5095026;28;20174;-72
2021/03/30 03:59:58;;;;;;;18.70;13.63;;;;;;;8.53;82.68;102227.53;5094783;28;20577;-72
2021/03/30 04:02:25;;;;;;;21.33;13.57;;;;;;;8.42;83.60;102225.97;5094647;28;20182;-72
2021/03/30 04:05:11;;;;;;;23.10;14.17;;;;;;;8.37;83.75;102235.84;5095509;28;20178;-72
2021/03/30 04:08:07;;;;;;;25.33;15.23;;;;;;;8.26;84.52;102242.28;5094928;28;20169;-71
2021/03/30 04:10:34;;;;;;;23.83;14.80;;;;;;;8.24;84.87;102242.31;5095988;28;20281;-72
2021/03/30 04:13:00;;;;;;;21.53;14.13;;;;;;;8.22;84.58;102233.50;5094668;28;20534;-71
2021/03/30 04:15:25;;;;;;;28.53;14.90;;;;;;;8.20;85.17;102240.63;5094774;28;20504;-72
2021/03/30 04:17:51;;;;;;;22.47;15.10;;;;;;;8.10;85.28;102234.59;5094502;28;20181;-72
2021/03/30 04:20:18;;;;;;;26.50;15.33;;;;;;;8.01;85.89;102242.78;5094590;28;20546;-72
2021/03/30 04:22:47;;;;;;;24.13;14.93;;;;;;;7.98;86.44;102236.66;5095640;28;20189;-72
2021/03/30 04:25:12;;;;;;;30.43;16.13;;;;;;;7.91;86.64;102245.66;5095459;28;20634;-72
2021/03/30 04:27:37;;;;;;;24.33;14.73;;;;;;;7.88;86.97;102243.06;5095496;28;20185;-72
2021/03/30 04:30:04;;;;;;;24.57;15.60;;;;;;;7.84;87.53;102240.47;5095447;28;20250;-72
2021/03/30 04:32:29;;;;;;;27.93;16.30;;;;;;;7.87;87.23;102238.66;5094119;28;20652;-72
2021/03/30 04:34:54;;;;;;;26.40;15.80;;;;;;;7.83;87.48;102244.03;5096185;28;20177;-72
2021/03/30 04:37:20;;;;;;;30.23;17.57;;;;;;;7.83;87.73;102248.47;5096192;28;20173;-72
2021/03/30 04:39:45;;;;;;;29.87;17.57;;;;;;;7.79;87.63;102239.66;5093927;28;20288;-72
2021/03/30 04:42:11;;;;;;;25.93;16.63;;;;;;;7.79;88.09;102244.09;5093923;28;20212;-72
2021/03/30 04:44:37;;;;;;;28.73;17.50;;;;;;;7.83;87.82;102252.00;5095252;28;20218;-72
2021/03/30 04:47:02;;;;;;;32.00;18.03;;;;;;;7.83;87.79;102249.34;5094970;28;20218;-72
2021/03/30 04:49:28;;;;;;;25.70;16.30;;;;;;;7.81;87.80;102256.47;5095162;28;20191;-72
2021/03/30 04:51:53;;;;;;;25.97;17.57;;;;;;;7.79;87.98;102252.94;5094841;28;20169;-72
2021/03/30 04:54:18;;;;;;;31.33;17.77;;;;;;;7.82;87.71;102258.22;5093798;28;20170;-72
2021/03/30 04:56:43;;;;;;;39.07;19.33;;;;;;;7.79;87.74;102257.38;5095046;28;20634;-72
2021/03/30 04:59:09;;;;;;;27.70;17.60;;;;;;;7.74;88.33;102260.13;5093334;28;20668;-72
2021/03/30 05:01:34;;;;;;;31.67;19.07;;;;;;;7.82;88.35;102255.56;5094697;28;20192;-72
2021/03/30 05:03:59;;;;;;;32.47;18.53;;;;;;;7.76;88.36;102258.31;5094826;28;20198;-72
2021/03/30 05:06:25;;;;;;;29.17;18.93;;;;;;;7.83;88.03;102254.66;5094846;28;20170;-72
2021/03/30 05:08:50;;;;;;;30.67;18.77;;;;;;;7.84;88.64;102261.72;5093383;28;20574;-72
2021/03/30 05:11:15;;;;;;;30.20;17.87;;;;;;;7.84;88.03;102272.38;5094471;28;20181;-73
2021/03/30 05:13:41;;;;;;;33.10;18.93;;;;;;;7.98;87.43;102265.91;5094213;28;20249;-71
2021/03/30 05:16:06;;;;;;;36.13;20.13;;;;;;;7.95;87.57;102276.59;5094536;28;20226;-72
2021/03/30 05:18:31;;;;;;;30.50;19.40;;;;;;;8.00;87.55;102270.28;5094353;28;20196;-71
2021/03/30 05:20:57;;;;;;;28.27;18.50;;;;;;;8.06;87.32;102271.94;5094634;28;20174;-71
2021/03/30 05:23:22;;;;;;;29.47;17.97;;;;;;;8.06;86.75;102267.50;5094345;28;20191;-72
2021/03/30 05:25:47;;;;;;;35.00;17.43;;;;;;;8.16;86.22;102273.50;5094357;28;20181;-71
2021/03/30 05:28:13;;;;;;;33.77;18.80;;;;;;;8.03;86.48;102282.63;5094215;28;20195;-71
2021/03/30 05:30:38;;;;;;;32.33;18.90;;;;;;;8.12;86.07;102285.09;5094130;28;20184;-71
2021/03/30 05:33:04;;;;;;;26.90;17.73;;;;;;;8.11;86.28;102291.31;5092858;28;20165;-72
2021/03/30 05:35:29;;;;;;;32.80;18.37;;;;;;;8.19;86.20;102283.22;5094243;28;20177;-71
2021/03/30 05:37:54;;;;;;;34.17;18.67;;;;;;;8.14;86.04;102291.25;5094637;28;20477;-72
2021/03/30 05:40:20;;;;;;;34.40;18.00;;;;;;;8.27;85.67;102298.13;5094598;28;20230;-71
2021/03/30 05:42:46;;;;;;;28.13;16.43;;;;;;;8.38;85.08;102295.25;5094840;28;20190;-73
2021/03/30 05:45:14;;;;;;;25.60;17.20;;;;;;;8.41;84.91;102296.06;5092232;28;20168;-72
2021/03/30 05:47:39;;;;;;;29.47;17.10;;;;;;;8.37;84.66;102291.72;5092627;28;20178;-71
2021/03/30 05:50:13;;;;;;;24.60;16.33;;;;;;;8.56;84.01;102297.56;5093529;28;20622;-72
2021/03/30 05:55:16;;;;;;;24.63;15.57;;;;;;;8.78;82.83;102293.50;5094277;28;20158;-72
2021/03/30 05:57:43;;;;;;;31.87;17.13;;;;;;;8.73;83.02;102302.50;5075583;28;20184;-70
2021/03/30 06:00:10;;;;;;;24.70;15.70;;;;;;;8.81;82.52;102300.53;5092670;28;20201;-72
2021/03/30 06:02:40;;;;;;;25.57;16.00;;;;;;;8.86;82.66;102297.75;5092106;28;20182;-73
2021/03/30 06:05:07;;;;;;;29.57;17.13;;;;;;;8.96;81.97;102297.53;5093536;28;20642;-73
2021/03/30 06:07:36;;;;;;;29.03;16.17;;;;;;;9.13;80.73;102301.59;5092430;28;20262;-73
2021/03/30 06:10:03;;;;;;;29.17;15.70;;;;;;;9.17;81.08;102297.94;5092289;28;20196;-73
2021/03/30 06:12:28;;;;;;;29.10;16.07;;;;;;;9.26;80.65;102303.03;5092507;28;20177;-72
2021/03/30 06:15:00;;;;;;;28.50;15.73;;;;;;;9.34;79.70;102295.75;5093784;28;20500;-72
2021/03/30 06:17:25;;;;;;;32.60;16.00;;;;;;;9.45;79.57;102293.69;5092420;28;20155;-72
2021/03/30 06:19:57;;;;;;;26.03;14.83;;;;;;;9.46;79.32;102295.44;5093619;28;20212;-72
2021/03/30 06:22:24;;;;;;;25.07;14.60;;;;;;;9.55;79.22;102305.00;5075233;28;20171;-72
2021/03/30 06:24:53;;;;;;;28.27;15.97;;;;;;;9.58;79.31;102304.91;5093316;28;20271;-72
2021/03/30 06:27:36;;;;;;;26.17;15.67;;;;;;;9.62;78.59;102306.56;5075276;28;20276;-72
2021/03/30 06:30:05;;;;;;;26.10;14.90;;;;;;;9.64;78.92;102310.94;5093016;28;20197;-72
2021/03/30 06:32:30;;;;;;;26.00;16.63;;;;;;;9.84;78.03;102314.91;5092980;28;20265;-72
2021/03/30 06:35:10;;;;;;;21.77;14.47;;;;;;;9.80;78.06;102310.56;5074969;28;20276;-72
2021/03/30 06:37:41;;;;;;;26.23;15.77;;;;;;;9.87;77.97;102310.38;5093452;28;20161;-72
2021/03/30 06:40:12;;;;;;;25.23;15.20;;;;;;;9.97;77.40;102316.31;5093044;28;20243;-72
2021/03/30 06:42:42;;;;;;;25.17;14.97;;;;;;;10.00;77.06;102326.91;5093112;28;20524;-72
2021/03/30 06:45:20;;;;;;;29.40;14.67;;;;;;;10.14;76.55;102323.88;5093276;28;20175;-71
2021/03/30 06:47:52;;;;;;;20.57;14.07;;;;;;;10.17;76.70;102330.00;5092345;28;20186;-72
2021/03/30 06:50:19;;;;;;;26.70;14.83;;;;;;;10.19;75.73;102335.31;5091837;28;20590;-71
2021/03/30 06:52:44;;;;;;;27.13;15.07;;;;;;;10.24;76.02;102338.75;5092850;28;20630;-72
2021/03/30 06:55:14;;;;;;;29.93;14.30;;;;;;;10.41;75.39;102340.97;5091831;28;20182;-72
2021/03/30 06:57:47;;;;;;;22.50;14.60;;;;;;;10.46;74.59;102334.56;5096419;28;20174;-72
2021/03/30 07:00:18;;;;;;;22.77;14.23;;;;;;;10.53;75.05;102336.13;5097415;28;20558;-72
2021/03/30 07:02:48;;;;;;;31.93;15.23;;;;;;;10.70;73.92;102340.97;5097047;28;20599;-71
2021/03/30 07:05:38;;;;;;;29.50;16.37;;;;;;;10.57;74.27;102339.59;5097223;28;20189;-72
2021/03/30 07:08:14;;;;;;;26.70;15.03;;;;;;;10.74;74.08;102342.63;5095735;28;20181;-72
2021/03/30 07:10:47;;;;;;;26.47;15.00;;;;;;;10.69;74.53;102351.69;5097106;28;20550;-72
2021/03/30 07:13:14;;;;;;;25.30;15.00;;;;;;;10.81;74.19;102341.56;5095699;28;20181;-72
2021/03/30 07:15:40;;;;;;;30.50;15.77;;;;;;;10.91;73.79;102345.69;5097003;28;20253;-71
2021/03/30 07:18:24;;;;;;;27.43;13.83;;;;;;;10.93;74.19;102338.50;5096694;28;20346;-71
2021/03/30 07:20:56;;;;;;;27.30;14.53;;;;;;;11.03;73.19;102338.22;5095555;28;20216;-73
2021/03/30 07:23:25;;;;;;;22.33;13.97;;;;;;;11.05;73.61;102339.91;5095665;28;20186;-71
2021/03/30 07:26:11;;;;;;;31.37;14.27;;;;;;;11.20;72.62;102338.56;5078581;28;20185;-72
2021/03/30 07:29:00;;;;;;;22.50;14.17;;;;;;;11.26;72.10;102341.03;5096017;28;20758;-72
2021/03/30 07:32:04;;;;;;;25.37;14.33;;;;;;;11.40;72.38;102341.47;5085513;28;20205;-71
2021/03/30 07:34:39;;;;;;;26.73;15.20;;;;;;;11.45;71.98;102350.22;5092058;28;20186;-73
2021/03/30 07:37:11;;;;;;;25.93;14.23;;;;;;;11.61;71.46;102339.03;5095334;28;20197;-72
2021/03/30 07:39:43;;;;;;;26.53;15.43;;;;;;;11.68;71.03;102338.75;5095128;28;20196;-72
2021/03/30 07:42:10;;;;;;;24.77;14.93;;;;;;;11.83;71.18;102343.63;5096223;28;20496;-70
2021/03/30 07:44:36;;;;;;;25.73;14.60;;;;;;;11.90;70.48;102341.63;5095973;28;20729;-71
2021/03/30 07:47:01;;;;;;;21.93;14.10;;;;;;;11.76;71.59;102342.03;5094992;28;20194;-72
2021/03/30 07:49:29;;;;;;;26.47;14.20;;;;;;;11.90;70.96;102349.66;5094612;28;20716;-71
2021/03/30 07:52:16;;;;;;;23.30;14.77;;;;;;;12.00;70.51;102345.72;5094959;28;20266;-72
2021/03/30 07:55:15;;;;;;;30.53;14.03;;;;;;;12.11;70.98;102345.34;5078093;28;20197;-71
2021/03/30 07:58:05;;;;;;;28.27;14.67;;;;;;;12.26;70.76;102344.78;5096305;28;20162;-71
2021/03/30 08:00:44;;;;;;;23.27;12.80;;;;;;;12.52;69.53;102357.22;5095902;28;20214;-72
2021/03/30 08:03:12;;;;;;;21.77;13.70;;;;;;;12.64;68.87;102359.47;5094748;28;20719;-72
2021/03/30 08:05:38;;;;;;;25.70;13.20;;;;;;;12.62;68.94;102350.59;5096036;28;20516;-71
2021/03/30 08:08:20;;;;;;;24.53;12.97;;;;;;;12.73;68.33;102364.47;5093882;28;20177;-71
2021/03/30 08:10:45;;;;;;;23.73;12.93;;;;;;;12.78;68.54;102356.25;5096027;28;20251;-71
2021/03/30 08:13:24;;;;;;;31.97;15.13;;;;;;;12.86;68.87;102345.25;5094198;28;20511;-71
2021/03/30 08:15:51;;;;;;;27.77;12.70;;;;;;;12.93;67.95;102352.09;5094379;28;20201;-71
2021/03/30 08:18:19;;;;;;;24.93;13.57;;;;;;;13.03;67.94;102354.41;5094594;28;20212;-74
2021/03/30 08:21:04;;;;;;;20.37;11.50;;;;;;;13.18;67.28;102363.66;5094157;28;20174;-72
2021/03/30 08:23:30;;;;;;;24.53;11.67;;;;;;;13.26;67.06;102355.31;5095435;28;20554;-73
2021/03/30 08:26:29;;;;;;;23.77;12.83;;;;;;;13.34;66.32;102354.06;5094499;28;20166;-71
2021/03/30 08:28:56;;;;;;;20.77;11.43;;;;;;;13.40;66.82;102359.19;5093671;28;20251;-72
2021/03/30 08:31:28;;;;;;;25.87;11.07;;;;;;;13.47;66.51;102353.59;5093733;28;20188;-71
2021/03/30 08:33:58;;;;;;;23.87;13.27;;;;;;;13.59;66.75;102348.56;5094498;28;20167;-71
2021/03/30 08:36:32;;;;;;;22.63;11.13;;;;;;;13.78;66.11;102343.31;5095210;28;20170;-71
2021/03/30 08:39:03;;;;;;;25.50;11.93;;;;;;;13.87;65.38;102347.41;5095729;28;20194;-71
2021/03/30 08:41:45;;;;;;;24.60;11.43;;;;;;;14.01;64.97;102355.75;5094831;28;20374;-71
2021/03/30 08:44:20;;;;;;;25.60;10.87;;;;;;;14.14;64.72;102346.25;5093479;28;20205;-72
2021/03/30 08:46:51;;;;;;;16.93;10.00;;;;;;;14.22;64.00;102354.81;5095298;28;20162;-72
2021/03/30 08:49:53;;;;;;;19.40;9.83;;;;;;;14.23;64.26;102350.31;5095087;28;20194;-72
2021/03/30 08:52:18;;;;;;;19.23;9.77;;;;;;;14.37;64.23;102347.88;5093100;28;20218;-71
2021/03/30 08:54:54;;;;;;;28.57;10.43;;;;;;;14.53;63.86;102354.34;5094747;28;20688;-72
2021/03/30 08:57:35;;;;;;;17.70;10.30;;;;;;;14.58;62.88;102351.47;5093986;28;20162;-71
2021/03/30 09:00:03;;;;;;;14.93;8.90;;;;;;;14.64;62.97;102354.72;5095120;28;20250;-70
2021/03/30 09:02:29;;;;;;;18.60;9.70;;;;;;;14.76;62.81;102360.47;5076482;28;20207;-71
2021/03/30 09:04:55;;;;;;;17.93;9.60;;;;;;;14.79;62.45;102358.50;5095079;28;20669;-71
2021/03/30 09:07:21;;;;;;;17.40;9.07;;;;;;;14.92;62.51;102359.72;5094754;28;20200;-71
2021/03/30 09:09:47;;;;;;;19.23;9.50;;;;;;;14.95;61.57;102361.38;5094911;28;20673;-71
2021/03/30 09:12:20;;;;;;;17.03;9.83;;;;;;;15.15;61.60;102353.22;5094521;28;20174;-72
2021/03/30 09:14:48;;;;;;;21.10;10.03;;;;;;;15.27;61.27;102362.53;5094772;28;20170;-72
2021/03/30 09:17:18;;;;;;;16.67;9.97;;;;;;;15.13;62.05;102351.56;5094830;28;20241;-72
2021/03/30 09:19:48;;;;;;;18.53;9.83;;;;;;;15.41;61.15;102349.28;5093496;28;20255;-72
2021/03/30 09:27:45;;;;;;;17.67;9.30;;;;;;;15.82;59.35;102355.31;5093464;28;20278;-72
2021/03/30 09:30:13;;;;;;;20.37;8.97;;;;;;;15.85;58.84;102355.16;5094227;28;20273;-72
2021/03/30 09:32:41;;;;;;;15.87;8.13;;;;;;;16.05;59.07;102364.03;5093215;28;20532;-72
2021/03/30 09:35:14;;;;;;;16.17;8.57;;;;;;;16.10;58.59;102353.91;5094567;28;20265;-72
2021/03/30 09:37:43;;;;;;;15.63;8.27;;;;;;;16.01;59.04;102351.69;5093128;28;20170;-71
2021/03/30 09:40:11;;;;;;;17.23;8.77;;;;;;;16.19;58.27;102356.09;5094078;28;20194;-71
2021/03/30 09:42:37;;;;;;;13.30;7.73;;;;;;;16.23;58.41;102355.84;5092874;28;20261;-72
2021/03/30 09:45:03;;;;;;;15.90;8.37;;;;;;;16.33;57.85;102340.06;5075919;28;20623;-72
2021/03/30 09:47:30;;;;;;;18.90;7.17;;;;;;;16.48;57.82;102344.66;5092760;28;20185;-71
2021/03/30 09:49:55;;;;;;;20.27;8.07;;;;;;;16.45;57.48;102350.22;5093052;28;20202;-71
2021/03/30 09:52:21;;;;;;;16.90;7.60;;;;;;;16.52;57.14;102351.63;5094004;28;20198;-72
2021/03/30 09:54:46;;;;;;;17.43;8.47;;;;;;;16.57;57.06;102359.47;5092751;28;20177;-71
2021/03/30 09:57:17;;;;;;;10.23;6.90;;;;;;;16.56;56.82;102349.63;5093871;28;20174;-71
2021/03/30 09:59:46;;;;;;;15.27;6.90;;;;;;;16.72;56.55;102352.38;5075818;28;20285;-71
2021/03/30 10:02:12;;;;;;;17.53;7.43;;;;;;;16.62;56.34;102341.22;5093767;28;20178;-72
2021/03/30 10:04:37;;;;;;;12.03;7.67;;;;;;;16.55;56.93;102351.44;5092480;28;20700;-73
2021/03/30 10:07:19;;;;;;;13.27;7.60;;;;;;;16.58;56.68;102351.28;5092975;28;20261;-71
2021/03/30 10:09:55;;;;;;;17.20;8.07;;;;;;;16.69;56.55;102349.84;5094572;28;20205;-71
2021/03/30 10:12:28;;;;;;;14.00;7.30;;;;;;;16.72;56.31;102349.69;5092321;28;20182;-74
2021/03/30 10:14:53;;;;;;;16.67;7.60;;;;;;;16.83;55.80;102339.22;5094071;28;20204;-72
2021/03/30 10:17:18;;;;;;;14.30;7.80;;;;;;;16.93;55.56;102344.94;5093818;28;20182;-71
2021/03/30 10:19:50;;;;;;;13.20;6.70;;;;;;;17.01;55.36;102348.09;5092348;28;20658;-72
2021/03/30 10:22:27;;;;;;;14.23;7.50;;;;;;;17.13;55.19;102334.78;5092243;28;20262;-71
2021/03/30 10:25:21;;;;;;;11.73;6.97;;;;;;;17.27;54.82;102333.13;5092733;28;20190;-71
2021/03/30 10:27:58;;;;;;;11.63;7.27;;;;;;;17.23;54.33;102335.13;5094023;28;20196;-72
2021/03/30 10:30:41;;;;;;;14.37;7.60;;;;;;;17.22;54.42;102321.72;5093981;28;20570;-72
2021/03/30 10:33:11;;;;;;;10.70;6.50;;;;;;;17.34;54.40;102329.97;5093715;28;20181;-72
2021/03/30 10:35:36;;;;;;;15.97;7.27;;;;;;;17.57;54.01;102320.56;5093464;28;20197;-71
2021/03/30 10:38:02;;;;;;;12.17;7.30;;;;;;;17.68;53.13;102317.25;5094117;28;20225;-72
2021/03/30 10:40:36;;;;;;;13.03;6.47;;;;;;;17.86;52.97;102321.56;5105749;28;20193;-72
2021/03/30 10:43:21;;;;;;;14.27;7.33;;;;;;;17.92;52.56;102325.72;5111892;28;20187;-71
2021/03/30 10:45:47;;;;;;;12.43;7.00;;;;;;;17.96;52.35;102338.97;5109468;28;20167;-72
2021/03/30 10:48:12;;;;;;;14.97;6.60;;;;;;;17.94;52.29;102324.66;5110572;28;20184;-72
2021/03/30 10:50:38;;;;;;;16.83;8.30;;;;;;;17.93;52.89;102332.88;5111922;28;20184;-72
2021/03/30 10:53:03;;;;;;;15.00;7.13;;;;;;;18.06;51.79;102323.06;5110761;28;20198;-72
2021/03/30 10:55:29;;;;;;;16.00;6.40;;;;;;;18.07;51.90;102327.50;5110068;28;20174;-72
2021/03/30 10:57:55;;;;;;;13.93;7.07;;;;;;;18.39;50.94;102331.78;5111015;28;20626;-73
2021/03/30 11:00:20;;;;;;;11.80;6.90;;;;;;;18.50;51.06;102323.00;5110419;28;20196;-72
2021/03/30 11:02:46;;;;;;;11.27;6.77;;;;;;;18.83;49.62;102330.84;5108817;28;20225;-72
2021/03/30 11:05:12;;;;;;;14.57;6.60;;;;;;;20.50;46.14;102325.91;5109921;28;20174;-72
2021/03/30 11:07:37;;;;;;;13.43;6.00;;;;;;;22.06;42.05;102318.75;5109851;28;20174;-73
2021/03/30 11:10:05;;;;;;;12.17;5.90;;;;;;;22.85;40.46;102321.56;5109755;28;20674;-72
2021/03/30 11:12:31;;;;;;;10.33;5.80;;;;;;;22.71;40.67;102326.25;5084289;28;20255;-71
2021/03/30 11:14:57;;;;;;;10.63;5.63;;;;;;;23.65;38.71;102309.38;5092868;28;20515;-72
2021/03/30 11:17:22;;;;;;;13.07;5.60;;;;;;;24.19;37.58;102329.31;5093204;28;20662;-72
2021/03/30 11:19:47;;;;;;;9.93;5.17;;;;;;;25.38;35.52;102319.50;5094434;28;20562;-71
2021/03/30 11:22:12;;;;;;;12.67;5.73;;;;;;;26.25;33.97;102322.22;5094397;28;20174;-71
2021/03/30 11:24:40;;;;;;;11.07;5.37;;;;;;;26.91;33.00;102311.22;5093682;28;20201;-71
2021/03/30 11:27:06;;;;;;;12.20;6.03;;;;;;;27.02;32.27;102311.03;5093488;28;20621;-72
2021/03/30 11:37:11;;;;;;;10.23;5.83;;;;;;;27.25;31.18;102305.13;5093220;28;20167;-70
2021/03/30 11:39:36;;;;;;;9.07;5.40;;;;;;;26.85;31.57;102286.31;5091693;28;20276;-73
2021/03/30 11:42:02;;;;;;;10.43;5.70;;;;;;;26.75;32.05;102287.19;5092294;28;20166;-71